createdAt,value
2022-12-06T00:00:16.192Z,0
2022-12-06T00:01:32.393Z,0
2022-12-06T00:02:48.568Z,0
2022-12-06T00:04:04.754Z,0
2022-12-06T00:05:21.062Z,0
2022-12-06T00:06:36.259Z,0
2022-12-06T00:07:52.452Z,0
2022-12-06T00:09:08.534Z,0
2022-12-06T00:10:24.723Z,0
2022-12-06T00:11:41.024Z,0
2022-12-06T00:12:57.083Z,0
2022-12-06T00:14:13.283Z,0
2022-12-06T00:15:28.501Z,0
2022-12-06T00:16:43.818Z,0
2022-12-06T00:17:59.029Z,0
2022-12-06T00:19:14.240Z,0
2022-12-06T00:20:30.306Z,0
2022-12-06T00:21:46.507Z,0
2022-12-06T00:23:02.676Z,0
2022-12-06T00:24:18.881Z,0
2022-12-06T00:25:35.067Z,0
2022-12-06T00:26:51.354Z,0
2022-12-06T00:28:07.439Z,0
2022-12-06T00:29:23.739Z,0
2022-12-06T00:30:39.918Z,0
2022-12-06T00:31:55.992Z,0
2022-12-06T00:33:12.194Z,0
2022-12-06T00:34:28.369Z,0
2022-12-06T00:35:43.574Z,0
2022-12-06T00:36:59.754Z,0
2022-12-06T00:38:16.066Z,0
2022-12-06T00:39:32.237Z,0
2022-12-06T00:40:48.336Z,0
2022-12-06T00:42:04.624Z,0
2022-12-06T00:43:20.693Z,0
2022-12-06T00:44:36.013Z,0
2022-12-06T00:45:51.138Z,0
2022-12-06T00:47:07.301Z,0
2022-12-06T00:48:23.494Z,0
2022-12-06T00:49:39.682Z,0
2022-12-06T00:50:55.967Z,0
2022-12-06T00:52:12.059Z,0
2022-12-06T00:53:28.240Z,0
2022-12-06T00:54:44.539Z,0
2022-12-06T00:56:00.725Z,0
2022-12-06T00:57:16.808Z,0
2022-12-06T00:58:32.989Z,0
2022-12-06T00:59:49.173Z,0
2022-12-06T01:01:05.367Z,0
2022-12-06T01:02:20.677Z,0
2022-12-06T01:03:36.751Z,0
2022-12-06T01:04:53.043Z,0
2022-12-06T01:06:09.141Z,0
2022-12-06T01:07:25.331Z,0
2022-12-06T01:08:41.615Z,0
2022-12-06T01:09:57.705Z,0
2022-12-06T01:11:12.916Z,0
2022-12-06T01:12:28.224Z,0
2022-12-06T01:13:44.309Z,0
2022-12-06T01:15:00.595Z,0
2022-12-06T01:16:16.672Z,0
2022-12-06T01:17:32.861Z,0
2022-12-06T01:18:49.052Z,0
2022-12-06T01:20:05.243Z,0
2022-12-06T01:21:21.531Z,0
2022-12-06T01:22:37.609Z,0
2022-12-06T01:23:53.796Z,0
2022-12-06T01:25:09.995Z,0
2022-12-06T01:26:26.186Z,0
2022-12-06T01:27:42.459Z,0
2022-12-06T01:28:57.577Z,0
2022-12-06T01:30:13.764Z,0
2022-12-06T01:31:29.950Z,0
2022-12-06T01:32:46.134Z,0
2022-12-06T01:34:02.407Z,0
2022-12-06T01:35:18.607Z,0
2022-12-06T01:36:34.689Z,0
2022-12-06T01:37:49.997Z,0
2022-12-06T01:39:05.131Z,0
2022-12-06T01:40:21.394Z,0
2022-12-06T01:41:37.495Z,0
2022-12-06T01:42:53.677Z,0
2022-12-06T01:44:09.861Z,0
2022-12-06T01:45:26.057Z,0
2022-12-06T01:46:42.240Z,0
2022-12-06T01:47:58.000Z,0
2022-12-06T01:49:14.617Z,0
2022-12-06T01:50:30.895Z,0
2022-12-06T01:51:46.984Z,0
2022-12-06T01:53:03.179Z,0
2022-12-06T01:54:19.365Z,0
2022-12-06T01:55:34.564Z,0
2022-12-06T01:56:50.753Z,0
2022-12-06T01:58:07.032Z,0
2022-12-06T01:59:23.218Z,0
2022-12-06T02:00:39.309Z,0
2022-12-06T02:01:55.505Z,0
2022-12-06T02:03:11.783Z,0
2022-12-06T02:04:26.911Z,0
2022-12-06T02:05:42.205Z,0
2022-12-06T02:06:58.290Z,0
2022-12-06T02:08:14.576Z,0
2022-12-06T02:09:30.749Z,0
2022-12-06T02:10:46.866Z,0
2022-12-06T02:12:03.127Z,0
2022-12-06T02:13:19.318Z,0
2022-12-06T02:14:35.513Z,0
2022-12-06T02:15:51.699Z,0
2022-12-06T02:17:07.793Z,0
2022-12-06T02:18:23.982Z,0
2022-12-06T02:19:40.179Z,0
2022-12-06T02:20:56.448Z,0
2022-12-06T02:22:11.562Z,0
2022-12-06T02:23:27.749Z,0
2022-12-06T02:24:43.950Z,0
2022-12-06T02:26:00.210Z,0
2022-12-06T02:27:16.324Z,0
2022-12-06T02:28:32.501Z,0
2022-12-06T02:29:48.704Z,0
2022-12-06T02:31:04.881Z,0
2022-12-06T02:32:21.085Z,0
2022-12-06T02:33:37.272Z,0
2022-12-06T02:34:53.456Z,0
2022-12-06T02:36:09.724Z,0
2022-12-06T02:37:25.914Z,0
2022-12-06T02:38:41.039Z,0
2022-12-06T02:39:57.234Z,0
2022-12-06T02:41:13.409Z,0
2022-12-06T02:42:29.612Z,0
2022-12-06T02:43:45.872Z,0
2022-12-06T02:45:01.972Z,0
2022-12-06T02:46:18.243Z,0
2022-12-06T02:47:34.365Z,0
2022-12-06T02:48:50.636Z,0
2022-12-06T02:50:06.815Z,0
2022-12-06T02:51:23.014Z,0
2022-12-06T02:52:39.107Z,0
2022-12-06T02:53:55.297Z,0
2022-12-06T02:55:10.499Z,0
2022-12-06T02:56:26.783Z,0
2022-12-06T02:57:42.877Z,0
2022-12-06T02:58:59.155Z,0
2022-12-06T03:00:15.347Z,0
2022-12-06T03:01:31.532Z,0
2022-12-06T03:02:47.642Z,0
2022-12-06T03:04:03.905Z,0
2022-12-06T03:05:20.021Z,0
2022-12-06T03:06:36.209Z,0
2022-12-06T03:07:52.407Z,0
2022-12-06T03:09:08.588Z,0
2022-12-06T03:10:24.787Z,0
2022-12-06T03:11:39.982Z,0
2022-12-06T03:12:56.176Z,0
2022-12-06T03:14:12.437Z,0
2022-12-06T03:15:28.622Z,0
2022-12-06T03:16:44.747Z,0
2022-12-06T03:18:00.937Z,0
2022-12-06T03:19:17.115Z,0
2022-12-06T03:20:33.308Z,0
2022-12-06T03:21:49.573Z,0
2022-12-06T03:23:05.693Z,0
2022-12-06T03:24:21.869Z,0
2022-12-06T03:25:38.131Z,0
2022-12-06T03:26:54.255Z,0
2022-12-06T03:28:09.454Z,0
2022-12-06T03:29:25.712Z,0
2022-12-06T03:30:41.826Z,0
2022-12-06T03:31:58.016Z,0
2022-12-06T03:33:14.216Z,0
2022-12-06T03:34:30.409Z,0
2022-12-06T03:35:46.648Z,0
2022-12-06T03:37:02.843Z,0
2022-12-06T03:38:18.965Z,0
2022-12-06T03:39:35.165Z,0
2022-12-06T03:40:51.407Z,0
2022-12-06T03:42:07.531Z,0
2022-12-06T03:43:23.717Z,0
2022-12-06T03:44:39.003Z,0
2022-12-06T03:45:55.119Z,0
2022-12-06T03:47:11.311Z,0
2022-12-06T03:48:27.491Z,0
2022-12-06T03:49:43.754Z,0
2022-12-06T03:50:59.868Z,0
2022-12-06T03:52:16.125Z,0
2022-12-06T03:53:32.319Z,0
2022-12-06T03:54:48.518Z,0
2022-12-06T03:56:04.640Z,0
2022-12-06T03:57:20.817Z,0
2022-12-06T03:58:37.011Z,0
2022-12-06T03:59:53.205Z,0
2022-12-06T04:01:08.406Z,0
2022-12-06T04:02:24.603Z,0
2022-12-06T04:03:40.843Z,0
2022-12-06T04:04:56.963Z,0
2022-12-06T04:06:13.229Z,0
2022-12-06T04:07:29.409Z,0
2022-12-06T04:08:45.535Z,0
2022-12-06T04:10:01.735Z,0
2022-12-06T04:11:17.925Z,0
2022-12-06T04:12:34.116Z,0
2022-12-06T04:13:50.285Z,0
2022-12-06T04:15:06.493Z,0
2022-12-06T04:16:22.669Z,0
2022-12-06T04:17:37.873Z,0
2022-12-06T04:18:54.075Z,0
2022-12-06T04:20:10.312Z,0
2022-12-06T04:21:26.442Z,0
2022-12-06T04:22:42.700Z,0
2022-12-06T04:23:58.819Z,0
2022-12-06T04:25:15.025Z,0
2022-12-06T04:26:31.198Z,0
2022-12-06T04:27:47.399Z,0
2022-12-06T04:29:03.649Z,0
2022-12-06T04:30:19.819Z,0
2022-12-06T04:31:35.958Z,0
2022-12-06T04:32:51.172Z,0
2022-12-06T04:34:07.355Z,0
2022-12-06T04:35:23.600Z,0
2022-12-06T04:36:39.750Z,0
2022-12-06T04:37:55.987Z,0
2022-12-06T04:39:12.122Z,0
2022-12-06T04:40:28.311Z,0
2022-12-06T04:41:44.500Z,0
2022-12-06T04:43:00.678Z,0
2022-12-06T04:44:16.936Z,0
2022-12-06T04:45:33.073Z,0
2022-12-06T04:46:49.244Z,0
2022-12-06T04:48:05.440Z,0
2022-12-06T04:49:20.648Z,0
2022-12-06T04:50:36.844Z,0
2022-12-06T04:51:53.026Z,0
2022-12-06T04:53:09.276Z,0
2022-12-06T04:54:25.400Z,0
2022-12-06T04:55:41.594Z,0
2022-12-06T04:56:57.841Z,0
2022-12-06T04:58:14.026Z,0
2022-12-06T04:59:30.172Z,0
2022-12-06T05:00:46.398Z,0
2022-12-06T05:02:02.548Z,0
2022-12-06T05:03:18.731Z,0
2022-12-06T05:04:34.912Z,0
2022-12-06T05:05:50.182Z,0
2022-12-06T05:07:06.315Z,0
2022-12-06T05:08:22.560Z,0
2022-12-06T05:09:38.703Z,0
2022-12-06T05:10:54.925Z,0
2022-12-06T05:12:11.080Z,0
2022-12-06T05:13:27.268Z,0
2022-12-06T05:14:43.447Z,0
2022-12-06T05:15:59.682Z,0
2022-12-06T05:17:15.871Z,0
2022-12-06T05:18:32.016Z,0
2022-12-06T05:19:48.204Z,0
2022-12-06T05:21:04.406Z,0
2022-12-06T05:22:19.649Z,0
2022-12-06T05:23:35.844Z,0
2022-12-06T05:24:52.036Z,0
2022-12-06T05:26:08.168Z,0
2022-12-06T05:27:24.350Z,0
2022-12-06T05:28:40.547Z,0
2022-12-06T05:29:56.748Z,0
2022-12-06T05:31:12.925Z,0
2022-12-06T05:32:29.112Z,0
2022-12-06T05:35:01.537Z,0
2022-12-06T05:36:17.688Z,0
2022-12-06T05:37:33.868Z,0
2022-12-06T05:38:49.125Z,0
2022-12-06T05:40:05.267Z,0
2022-12-06T05:41:21.464Z,0
2022-12-06T05:42:37.654Z,0
2022-12-06T05:43:53.883Z,0
2022-12-06T05:45:10.068Z,0
2022-12-06T05:46:26.215Z,0
2022-12-06T05:47:42.403Z,0
2022-12-06T05:48:58.597Z,0
2022-12-06T05:50:14.779Z,0
2022-12-06T05:51:31.020Z,0
2022-12-06T05:52:47.171Z,0
2022-12-06T05:54:03.404Z,0
2022-12-06T05:55:18.553Z,0
2022-12-06T05:56:34.754Z,0
2022-12-06T05:57:50.930Z,0
2022-12-06T05:59:07.172Z,0
2022-12-06T06:00:23.352Z,0
2022-12-06T06:01:39.545Z,0
2022-12-06T06:02:55.690Z,0
2022-12-06T06:04:11.882Z,0
2022-12-06T06:05:28.077Z,0
2022-12-06T06:06:44.265Z,0
2022-12-06T06:08:00.452Z,0
2022-12-06T06:09:16.673Z,0
2022-12-06T06:10:32.840Z,0
2022-12-06T06:11:48.046Z,0
2022-12-06T06:13:04.270Z,0
2022-12-06T06:14:20.414Z,0
2022-12-06T06:15:36.605Z,0
2022-12-06T06:16:52.835Z,0
2022-12-06T06:18:08.981Z,0
2022-12-06T06:19:25.181Z,0
2022-12-06T06:20:41.360Z,0
2022-12-06T06:21:57.553Z,0
2022-12-06T06:23:13.736Z,0
2022-12-06T06:24:29.969Z,0
2022-12-06T06:25:46.141Z,0
2022-12-06T06:27:02.313Z,0
2022-12-06T06:28:17.506Z,0
2022-12-06T06:29:33.745Z,0
2022-12-06T06:30:49.898Z,0
2022-12-06T06:32:06.103Z,0
2022-12-06T06:33:22.276Z,0
2022-12-06T06:34:38.495Z,0
2022-12-06T06:35:54.681Z,0
2022-12-06T06:37:10.849Z,0
2022-12-06T06:38:27.053Z,0
2022-12-06T06:39:43.252Z,0
2022-12-06T06:40:59.401Z,0
2022-12-06T06:42:15.589Z,4
2022-12-06T06:43:31.817Z,4
2022-12-06T06:44:46.983Z,4
2022-12-06T06:46:03.170Z,0
2022-12-06T06:47:19.400Z,4
2022-12-06T06:48:35.592Z,4
2022-12-06T06:49:51.765Z,8
2022-12-06T06:51:07.964Z,4
2022-12-06T06:52:24.120Z,4
2022-12-06T06:53:40.304Z,8
2022-12-06T06:54:56.536Z,8
2022-12-06T06:56:12.700Z,8
2022-12-06T06:57:28.909Z,8
2022-12-06T06:58:45.062Z,12
2022-12-06T07:00:01.254Z,16
2022-12-06T07:01:16.490Z,12
2022-12-06T07:02:32.689Z,16
2022-12-06T07:03:48.862Z,16
2022-12-06T07:05:05.055Z,16
2022-12-06T07:06:21.225Z,20
2022-12-06T07:07:37.406Z,20
2022-12-06T07:08:53.595Z,20
2022-12-06T07:10:09.804Z,32
2022-12-06T07:11:25.981Z,24
2022-12-06T07:12:42.172Z,28
2022-12-06T07:13:58.351Z,28
2022-12-06T07:15:14.576Z,32
2022-12-06T07:16:30.740Z,40
2022-12-06T07:17:45.972Z,40
2022-12-06T07:19:02.129Z,48
2022-12-06T07:20:18.316Z,52
2022-12-06T07:21:34.509Z,56
2022-12-06T07:22:50.699Z,56
2022-12-06T07:24:06.895Z,68
2022-12-06T07:25:23.101Z,72
2022-12-06T07:26:39.262Z,80
2022-12-06T07:27:55.473Z,92
2022-12-06T07:29:11.672Z,96
2022-12-06T07:30:27.832Z,104
2022-12-06T07:31:44.013Z,100
2022-12-06T07:33:00.223Z,88
2022-12-06T07:34:15.442Z,96
2022-12-06T07:35:31.609Z,104
2022-12-06T07:36:47.795Z,108
2022-12-06T07:38:04.005Z,108
2022-12-06T07:39:20.191Z,100
2022-12-06T07:40:36.384Z,96
2022-12-06T07:41:52.559Z,120
2022-12-06T07:43:08.750Z,104
2022-12-06T07:44:24.938Z,116
2022-12-06T07:45:41.134Z,124
2022-12-06T07:46:57.302Z,120
2022-12-06T07:48:13.513Z,120
2022-12-06T07:49:29.689Z,124
2022-12-06T07:50:44.911Z,128
2022-12-06T07:52:01.071Z,124
2022-12-06T07:53:17.275Z,128
2022-12-06T07:54:33.462Z,136
2022-12-06T07:55:49.660Z,152
2022-12-06T07:57:05.840Z,172
2022-12-06T07:58:22.035Z,196
2022-12-06T07:59:38.211Z,208
2022-12-06T08:00:54.401Z,220
2022-12-06T08:02:10.597Z,212
2022-12-06T08:03:26.796Z,220
2022-12-06T08:04:42.973Z,228
2022-12-06T08:05:59.152Z,228
2022-12-06T08:07:14.378Z,232
2022-12-06T08:08:30.563Z,252
2022-12-06T08:09:46.742Z,248
2022-12-06T08:11:02.950Z,264
2022-12-06T08:12:19.129Z,312
2022-12-06T08:13:35.315Z,308
2022-12-06T08:14:51.501Z,284
2022-12-06T08:16:07.699Z,324
2022-12-06T08:17:23.885Z,252
2022-12-06T08:18:40.085Z,296
2022-12-06T08:19:56.256Z,308
2022-12-06T08:21:12.442Z,336
2022-12-06T08:22:28.637Z,324
2022-12-06T08:23:43.846Z,328
2022-12-06T08:25:00.026Z,344
2022-12-06T08:26:16.224Z,352
2022-12-06T08:27:32.418Z,348
2022-12-06T08:28:48.590Z,332
2022-12-06T08:30:04.792Z,340
2022-12-06T08:31:20.969Z,284
2022-12-06T08:32:37.174Z,224
2022-12-06T08:33:53.369Z,216
2022-12-06T08:35:09.540Z,220
2022-12-06T08:36:25.730Z,208
2022-12-06T08:37:41.930Z,220
2022-12-06T08:38:58.126Z,232
2022-12-06T08:40:13.311Z,208
2022-12-06T08:41:29.507Z,188
2022-12-06T08:42:45.705Z,232
2022-12-06T08:44:01.894Z,288
2022-12-06T08:45:18.069Z,312
2022-12-06T08:46:34.271Z,344
2022-12-06T08:47:49.479Z,384
2022-12-06T08:49:05.656Z,392
2022-12-06T08:50:21.848Z,384
2022-12-06T08:51:38.041Z,356
2022-12-06T08:52:54.228Z,380
2022-12-06T08:54:10.419Z,420
2022-12-06T08:55:26.603Z,384
2022-12-06T08:56:42.791Z,460
2022-12-06T08:57:58.985Z,436
2022-12-06T08:59:15.177Z,440
2022-12-06T09:00:31.375Z,536
2022-12-06T09:01:47.554Z,504
2022-12-06T09:03:03.741Z,536
2022-12-06T09:04:18.952Z,516
2022-12-06T09:05:35.150Z,508
2022-12-06T09:06:51.316Z,440
2022-12-06T09:08:07.512Z,520
2022-12-06T09:09:23.720Z,500
2022-12-06T09:10:39.903Z,480
2022-12-06T09:11:56.083Z,468
2022-12-06T09:13:12.272Z,612
2022-12-06T09:14:28.472Z,620
2022-12-06T09:15:44.652Z,480
2022-12-06T09:17:00.832Z,464
2022-12-06T09:18:17.035Z,456
2022-12-06T09:19:33.211Z,636
2022-12-06T09:20:48.414Z,704
2022-12-06T09:22:04.619Z,668
2022-12-06T09:23:20.807Z,808
2022-12-06T09:24:37.003Z,740
2022-12-06T09:25:53.175Z,540
2022-12-06T09:27:09.364Z,496
2022-12-06T09:28:25.555Z,700
2022-12-06T09:29:41.753Z,620
2022-12-06T09:30:57.937Z,740
2022-12-06T09:32:14.114Z,612
2022-12-06T09:33:30.328Z,496
2022-12-06T09:34:46.500Z,496
2022-12-06T09:36:02.681Z,480
2022-12-06T09:37:17.904Z,400
2022-12-06T09:38:34.087Z,472
2022-12-06T09:39:50.283Z,488
2022-12-06T09:41:06.462Z,576
2022-12-06T09:42:22.654Z,580
2022-12-06T09:43:38.847Z,640
2022-12-06T09:44:55.025Z,580
2022-12-06T09:46:11.223Z,556
2022-12-06T09:47:27.426Z,632
2022-12-06T09:48:43.597Z,588
2022-12-06T09:49:59.797Z,600
2022-12-06T09:51:15.985Z,596
2022-12-06T09:52:32.178Z,476
2022-12-06T09:53:47.366Z,516
2022-12-06T09:55:03.562Z,628
2022-12-06T09:56:19.765Z,756
2022-12-06T09:57:35.930Z,924
2022-12-06T09:58:52.139Z,804
2022-12-06T10:00:08.314Z,712
2022-12-06T10:01:24.500Z,788
2022-12-06T10:02:40.694Z,748
2022-12-06T10:03:56.887Z,680
2022-12-06T10:05:13.072Z,680
2022-12-06T10:06:29.279Z,748
2022-12-06T10:07:45.460Z,724
2022-12-06T10:09:01.651Z,668
2022-12-06T10:10:16.861Z,596
2022-12-06T10:11:33.040Z,548
2022-12-06T10:12:49.212Z,564
2022-12-06T10:14:05.405Z,560
2022-12-06T10:15:21.607Z,580
2022-12-06T10:16:37.791Z,712
2022-12-06T10:17:53.981Z,624
2022-12-06T10:19:10.185Z,688
2022-12-06T10:20:26.369Z,596
2022-12-06T10:21:42.566Z,612
2022-12-06T10:22:58.740Z,492
2022-12-06T10:24:14.937Z,548
2022-12-06T10:25:31.135Z,648
2022-12-06T10:26:46.309Z,680
2022-12-06T10:28:02.497Z,608
2022-12-06T10:29:18.711Z,636
2022-12-06T10:30:34.895Z,648
2022-12-06T10:31:51.093Z,696
2022-12-06T10:33:07.278Z,752
2022-12-06T10:34:23.453Z,800
2022-12-06T10:35:39.625Z,800
2022-12-06T10:36:55.837Z,756
2022-12-06T10:38:12.005Z,836
2022-12-06T10:39:28.203Z,820
2022-12-06T10:40:44.383Z,800
2022-12-06T10:42:00.601Z,832
2022-12-06T10:43:15.797Z,748
2022-12-06T10:44:31.990Z,760
2022-12-06T10:45:48.164Z,756
2022-12-06T10:47:04.364Z,720
2022-12-06T10:48:20.549Z,652
2022-12-06T10:49:36.754Z,716
2022-12-06T10:50:52.919Z,588
2022-12-06T10:52:09.100Z,584
2022-12-06T10:53:25.286Z,608
2022-12-06T10:54:41.510Z,552
2022-12-06T10:55:57.672Z,544
2022-12-06T10:57:13.876Z,468
2022-12-06T10:58:30.043Z,564
2022-12-06T10:59:45.283Z,636
2022-12-06T11:01:01.471Z,716
2022-12-06T11:02:17.663Z,600
2022-12-06T11:03:33.859Z,616
2022-12-06T11:04:50.017Z,668
2022-12-06T11:06:06.203Z,848
2022-12-06T11:07:22.423Z,876
2022-12-06T11:08:38.599Z,804
2022-12-06T11:09:54.789Z,732
2022-12-06T11:11:10.961Z,680
2022-12-06T11:12:27.167Z,736
2022-12-06T11:13:43.332Z,772
2022-12-06T11:14:59.552Z,736
2022-12-06T11:16:14.761Z,788
2022-12-06T11:17:30.938Z,660
2022-12-06T11:18:47.142Z,712
2022-12-06T11:20:03.334Z,840
2022-12-06T11:21:19.506Z,816
2022-12-06T11:22:35.709Z,656
2022-12-06T11:23:51.887Z,676
2022-12-06T11:25:08.073Z,636
2022-12-06T11:26:24.273Z,596
2022-12-06T11:27:40.430Z,760
2022-12-06T11:28:56.618Z,788
2022-12-06T11:30:12.832Z,720
2022-12-06T11:32:45.211Z,684
2022-12-06T11:34:00.420Z,680
2022-12-06T11:35:16.611Z,632
2022-12-06T11:36:32.772Z,920
2022-12-06T11:37:48.995Z,708
2022-12-06T11:39:05.185Z,596
2022-12-06T11:40:21.362Z,656
2022-12-06T11:41:37.562Z,500
2022-12-06T11:42:53.720Z,480
2022-12-06T11:44:09.907Z,568
2022-12-06T11:45:26.098Z,460
2022-12-06T11:46:42.269Z,444
2022-12-06T11:47:58.470Z,540
2022-12-06T11:49:14.684Z,528
2022-12-06T11:50:29.896Z,468
2022-12-06T11:51:46.051Z,460
2022-12-06T11:53:02.277Z,520
2022-12-06T11:54:18.458Z,576
2022-12-06T11:55:34.610Z,444
2022-12-06T11:56:50.788Z,392
2022-12-06T11:58:07.020Z,536
2022-12-06T11:59:23.169Z,488
2022-12-06T12:00:39.384Z,536
2022-12-06T12:01:55.572Z,624
2022-12-06T12:03:11.760Z,672
2022-12-06T12:04:27.918Z,572
2022-12-06T12:05:44.139Z,580
2022-12-06T12:06:59.313Z,608
2022-12-06T12:08:15.492Z,504
2022-12-06T12:09:31.720Z,468
2022-12-06T12:10:47.909Z,504
2022-12-06T12:12:04.098Z,568
2022-12-06T12:13:20.242Z,556
2022-12-06T12:14:36.428Z,572
2022-12-06T12:15:52.659Z,596
2022-12-06T12:17:08.845Z,516
2022-12-06T12:18:25.024Z,460
2022-12-06T12:19:41.220Z,420
2022-12-06T12:20:57.364Z,420
2022-12-06T12:22:13.551Z,428
2022-12-06T12:23:28.802Z,344
2022-12-06T12:24:44.989Z,400
2022-12-06T12:26:01.166Z,516
2022-12-06T12:27:17.319Z,596
2022-12-06T12:28:33.550Z,472
2022-12-06T12:29:49.690Z,576
2022-12-06T12:31:05.933Z,652
2022-12-06T12:32:22.117Z,788
2022-12-06T12:33:38.262Z,768
2022-12-06T12:34:54.490Z,776
2022-12-06T12:36:10.624Z,732
2022-12-06T12:37:26.805Z,584
2022-12-06T12:38:43.049Z,432
2022-12-06T12:39:58.195Z,432
2022-12-06T12:41:14.435Z,364
2022-12-06T12:42:30.629Z,344
2022-12-06T12:43:46.758Z,416
2022-12-06T12:45:02.951Z,384
2022-12-06T12:46:19.144Z,388
2022-12-06T12:47:35.370Z,428
2022-12-06T12:48:51.509Z,408
2022-12-06T12:50:07.753Z,432
2022-12-06T12:51:24.035Z,416
2022-12-06T12:52:40.072Z,380
2022-12-06T12:53:56.266Z,336
2022-12-06T12:56:28.811Z,324
2022-12-06T12:57:44.004Z,320
2022-12-06T12:59:00.170Z,360
2022-12-06T13:00:16.362Z,356
2022-12-06T13:01:32.573Z,348
2022-12-06T13:02:47.758Z,336
2022-12-06T13:04:03.959Z,340
2022-12-06T13:05:20.162Z,280
2022-12-06T13:06:36.348Z,260
2022-12-06T13:07:52.516Z,268
2022-12-06T13:09:08.710Z,296
2022-12-06T13:10:24.900Z,284
2022-12-06T13:11:41.073Z,288
2022-12-06T13:12:57.252Z,288
2022-12-06T13:14:13.460Z,304
2022-12-06T13:15:29.629Z,276
2022-12-06T13:16:45.844Z,268
2022-12-06T13:18:02.020Z,256
2022-12-06T13:19:17.230Z,256
2022-12-06T13:20:33.405Z,248
2022-12-06T13:21:49.577Z,248
2022-12-06T13:23:05.764Z,244
2022-12-06T13:24:21.965Z,268
2022-12-06T13:25:38.166Z,280
2022-12-06T13:26:54.364Z,260
2022-12-06T13:28:10.548Z,248
2022-12-06T13:29:26.733Z,252
2022-12-06T13:30:42.887Z,216
2022-12-06T13:31:59.108Z,200
2022-12-06T13:33:15.296Z,176
2022-12-06T13:34:31.470Z,192
2022-12-06T13:35:46.675Z,192
2022-12-06T13:37:02.839Z,200
2022-12-06T13:38:19.039Z,200
2022-12-06T13:39:35.247Z,196
2022-12-06T13:40:51.440Z,172
2022-12-06T13:42:07.613Z,176
2022-12-06T13:43:23.788Z,188
2022-12-06T13:44:40.004Z,184
2022-12-06T13:45:56.177Z,180
2022-12-06T13:47:12.346Z,172
2022-12-06T13:48:28.558Z,176
2022-12-06T13:49:44.726Z,208
2022-12-06T13:51:00.930Z,216
2022-12-06T13:52:16.140Z,208
2022-12-06T13:53:32.302Z,208
2022-12-06T13:54:48.502Z,196
2022-12-06T13:56:04.704Z,224
2022-12-06T13:57:20.880Z,224
2022-12-06T13:58:37.043Z,196
2022-12-06T13:59:53.258Z,196
2022-12-06T14:01:09.408Z,188
2022-12-06T14:02:25.642Z,188
2022-12-06T14:03:41.793Z,188
2022-12-06T14:04:58.000Z,180
2022-12-06T14:06:14.201Z,164
2022-12-06T14:07:30.385Z,180
2022-12-06T14:08:45.562Z,160
2022-12-06T14:10:01.779Z,148
2022-12-06T14:11:17.956Z,144
2022-12-06T14:12:34.142Z,140
2022-12-06T14:13:50.297Z,136
2022-12-06T14:15:06.497Z,128
2022-12-06T14:16:22.690Z,112
2022-12-06T14:17:38.902Z,100
2022-12-06T14:18:55.083Z,104
2022-12-06T14:20:11.272Z,96
2022-12-06T14:21:27.470Z,88
2022-12-06T14:22:43.605Z,84
2022-12-06T14:23:59.000Z,80
2022-12-06T14:25:15.044Z,76
2022-12-06T14:26:31.222Z,80
2022-12-06T14:27:47.374Z,84
2022-12-06T14:29:03.560Z,72
2022-12-06T14:30:19.797Z,72
2022-12-06T14:31:35.969Z,72
2022-12-06T14:32:52.162Z,68
2022-12-06T14:34:08.353Z,68
2022-12-06T14:35:24.530Z,64
2022-12-06T14:36:40.732Z,56
2022-12-06T14:37:56.919Z,52
2022-12-06T14:39:13.067Z,48
2022-12-06T14:40:29.246Z,40
2022-12-06T14:41:44.491Z,36
2022-12-06T14:43:00.687Z,36
2022-12-06T14:44:16.837Z,32
2022-12-06T14:45:33.055Z,24
2022-12-06T14:46:49.208Z,24
2022-12-06T14:48:05.427Z,20
2022-12-06T14:49:21.623Z,20
2022-12-06T14:50:37.803Z,16
2022-12-06T14:51:53.995Z,12
2022-12-06T14:53:10.150Z,12
2022-12-06T14:54:26.322Z,12
2022-12-06T14:55:42.556Z,12
2022-12-06T14:56:58.741Z,8
2022-12-06T14:58:13.946Z,12
2022-12-06T14:59:30.097Z,8
2022-12-06T15:00:46.330Z,4
2022-12-06T15:02:02.469Z,4
2022-12-06T15:03:18.702Z,8
2022-12-06T15:04:34.889Z,4
2022-12-06T15:05:51.026Z,4
2022-12-06T15:07:07.255Z,0
2022-12-06T15:08:23.448Z,0
2022-12-06T15:09:39.588Z,4
2022-12-06T15:10:55.824Z,4
2022-12-06T15:12:12.001Z,4
2022-12-06T15:13:28.202Z,0
2022-12-06T15:14:43.401Z,0
2022-12-06T15:15:59.546Z,0
2022-12-06T15:17:15.724Z,0
2022-12-06T15:18:31.909Z,0
2022-12-06T15:19:48.148Z,0
2022-12-06T15:21:04.348Z,0
2022-12-06T15:22:20.528Z,0
2022-12-06T15:23:36.712Z,0
2022-12-06T15:24:52.851Z,0
2022-12-06T15:26:09.089Z,0
2022-12-06T15:27:25.286Z,0
2022-12-06T15:28:41.470Z,0
2022-12-06T15:29:57.594Z,0
2022-12-06T15:31:12.847Z,0
2022-12-06T15:32:29.033Z,0
2022-12-06T15:33:45.227Z,0
2022-12-06T15:35:01.377Z,0
2022-12-06T15:36:17.555Z,0
2022-12-06T15:37:33.786Z,0
2022-12-06T15:38:49.988Z,0
2022-12-06T15:40:06.107Z,0
2022-12-06T15:41:22.348Z,0
2022-12-06T15:42:38.535Z,0
2022-12-06T15:43:54.728Z,0
2022-12-06T15:45:10.856Z,0
2022-12-06T15:46:27.102Z,0
2022-12-06T15:47:42.312Z,0
2022-12-06T15:48:58.500Z,0
2022-12-06T15:50:14.000Z,0
2022-12-06T15:51:30.882Z,0
2022-12-06T15:52:47.058Z,0
2022-12-06T15:54:03.197Z,0
2022-12-06T15:55:19.382Z,0
2022-12-06T15:56:35.561Z,0
2022-12-06T15:57:51.747Z,0
2022-12-06T15:59:07.986Z,0
2022-12-06T16:00:24.119Z,0
2022-12-06T16:01:40.363Z,0
2022-12-06T16:02:56.512Z,0
2022-12-06T16:04:11.771Z,0
2022-12-06T16:05:27.958Z,0
2022-12-06T16:06:44.138Z,0
2022-12-06T16:08:00.258Z,0
2022-12-06T16:09:16.452Z,0
2022-12-06T16:10:32.637Z,0
2022-12-06T16:11:48.891Z,0
2022-12-06T16:13:05.063Z,0
2022-12-06T16:14:21.268Z,0
2022-12-06T16:15:37.387Z,0
2022-12-06T16:16:53.626Z,0
2022-12-06T16:18:09.827Z,0
2022-12-06T16:19:26.016Z,0
2022-12-06T16:20:41.163Z,0
2022-12-06T16:21:57.335Z,0
2022-12-06T16:23:13.581Z,0
2022-12-06T16:24:29.776Z,0
2022-12-06T16:25:45.958Z,0
2022-12-06T16:27:02.142Z,0
2022-12-06T16:28:18.348Z,0
2022-12-06T16:29:34.520Z,0
2022-12-06T16:30:50.705Z,0
2022-12-06T16:32:06.910Z,0
2022-12-06T16:33:23.034Z,0
2022-12-06T16:34:39.205Z,0
2022-12-06T16:35:55.398Z,0
2022-12-06T16:37:10.611Z,0
2022-12-06T16:38:26.859Z,0
2022-12-06T16:39:43.046Z,0
2022-12-06T16:40:59.175Z,0
2022-12-06T16:42:15.348Z,0
2022-12-06T16:43:31.599Z,0
2022-12-06T16:44:47.725Z,0
2022-12-06T16:46:03.983Z,0
2022-12-06T16:48:36.283Z,0
2022-12-06T16:49:52.542Z,0
2022-12-06T16:51:08.672Z,0
2022-12-06T16:52:24.923Z,0
2022-12-06T16:53:40.111Z,0
2022-12-06T16:54:56.239Z,0
2022-12-06T16:56:12.429Z,0
2022-12-06T16:57:28.608Z,0
2022-12-06T16:58:44.872Z,0
2022-12-06T17:00:00.985Z,0
2022-12-06T17:01:17.250Z,0
2022-12-06T17:02:33.366Z,0
2022-12-06T17:03:49.543Z,0
2022-12-06T17:05:05.813Z,0
2022-12-06T17:06:21.916Z,0
2022-12-06T17:07:38.182Z,0
2022-12-06T17:08:54.360Z,0
2022-12-06T17:10:09.577Z,0
2022-12-06T17:11:25.691Z,0
2022-12-06T17:12:41.943Z,0
2022-12-06T17:13:58.144Z,0
2022-12-06T17:15:14.327Z,0
2022-12-06T17:16:30.519Z,0
2022-12-06T17:17:45.712Z,0
2022-12-06T17:19:01.832Z,0
2022-12-06T17:20:18.085Z,0
2022-12-06T17:21:34.206Z,0
2022-12-06T17:22:50.460Z,0
2022-12-06T17:24:06.659Z,0
2022-12-06T17:25:22.767Z,0
2022-12-06T17:26:38.959Z,0
2022-12-06T17:27:55.214Z,0
2022-12-06T17:29:11.406Z,0
2022-12-06T17:30:27.600Z,0
2022-12-06T17:31:43.786Z,0
2022-12-06T17:32:59.959Z,0
2022-12-06T17:34:16.076Z,0
2022-12-06T17:35:31.355Z,0
2022-12-06T17:36:47.543Z,0
2022-12-06T17:38:03.650Z,0
2022-12-06T17:39:19.850Z,0
2022-12-06T17:40:36.117Z,0
2022-12-06T17:41:52.215Z,0
2022-12-06T17:43:08.491Z,0
2022-12-06T17:44:24.600Z,0
2022-12-06T17:45:40.862Z,0
2022-12-06T17:46:56.972Z,0
2022-12-06T17:48:13.240Z,0
2022-12-06T17:49:29.350Z,0
2022-12-06T17:50:45.522Z,0
2022-12-06T17:52:00.741Z,0
2022-12-06T17:53:16.991Z,0
2022-12-06T17:54:33.100Z,0
2022-12-06T17:55:49.379Z,0
2022-12-06T17:57:05.484Z,0
2022-12-06T17:58:21.748Z,0
2022-12-06T17:59:37.936Z,0
2022-12-06T18:00:54.132Z,0
2022-12-06T18:02:10.313Z,0
2022-12-06T18:03:26.426Z,0
2022-12-06T18:04:42.612Z,0
2022-12-06T18:05:58.867Z,0
2022-12-06T18:07:15.068Z,0
2022-12-06T18:08:30.262Z,0
2022-12-06T18:09:46.372Z,0
2022-12-06T18:11:02.649Z,0
2022-12-06T18:12:18.737Z,0
2022-12-06T18:13:35.006Z,0
2022-12-06T18:14:51.196Z,0
2022-12-06T18:16:07.313Z,0
2022-12-06T18:17:23.495Z,0